sensor_id;sensor_type;location;lat;lon;timestamp;pressure;altitude;pressure_sealevel;temperature;humidity
1832;BME280;1680;48.106;11.708;2023-04-24T00:01:22;94643.06;;;11.76;100.00
1832;BME280;1680;48.106;11.708;2023-04-24T00:03:52;94640.78;;;11.85;100.00
1832;BME280;1680;48.106;11.708;2023-04-24T00:06:20;94635.53;;;11.85;100.00
1832;BME280;1680;48.106;11.708;2023-04-24T00:08:49;94639.41;;;11.77;100.00
1832;BME280;1680;48.106;11.708;2023-04-24T00:11:16;94633.72;;;11.85;100.00
1832;BME280;1680;48.106;11.708;2023-04-24T00:13:43;94632.13;;;11.84;100.00
1832;BME280;1680;48.106;11.708;2023-04-24T00:16:10;94636.88;;;11.87;100.00
1832;BME280;1680;48.106;11.708;2023-04-24T00:18:37;94629.66;;;11.73;100.00
1832;BME280;1680;48.106;11.708;2023-04-24T00:21:05;94624.19;;;11.74;100.00
1832;BME280;1680;48.106;11.708;2023-04-24T00:23:33;94627.25;;;11.66;100.00
1832;BME280;1680;48.106;11.708;2023-04-24T00:26:01;94621.50;;;11.69;100.00
1832;BME280;1680;48.106;11.708;2023-04-24T00:28:28;94616.53;;;11.73;100.00
1832;BME280;1680;48.106;11.708;2023-04-24T00:30:55;94610.44;;;11.67;100.00
1832;BME280;1680;48.106;11.708;2023-04-24T00:33:22;94611.78;;;11.70;100.00
1832;BME280;1680;48.106;11.708;2023-04-24T00:35:49;94618.59;;;11.71;100.00
1832;BME280;1680;48.106;11.708;2023-04-24T00:38:17;94626.25;;;11.72;100.00
1832;BME280;1680;48.106;11.708;2023-04-24T00:40:45;94618.06;;;11.69;100.00
1832;BME280;1680;48.106;11.708;2023-04-24T00:43:13;94619.88;;;11.63;100.00
1832;BME280;1680;48.106;11.708;2023-04-24T00:45:40;94616.19;;;11.60;100.00
1832;BME280;1680;48.106;11.708;2023-04-24T00:48:07;94617.22;;;11.59;100.00
1832;BME280;1680;48.106;11.708;2023-04-24T00:50:35;94607.44;;;11.54;100.00
1832;BME280;1680;48.106;11.708;2023-04-24T00:53:03;94605.16;;;11.62;100.00
1832;BME280;1680;48.106;11.708;2023-04-24T00:55:30;94605.88;;;11.53;100.00
1832;BME280;1680;48.106;11.708;2023-04-24T00:58:00;94610.00;;;11.49;100.00
1832;BME280;1680;48.106;11.708;2023-04-24T01:00:27;94607.13;;;11.51;100.00
1832;BME280;1680;48.106;11.708;2023-04-24T01:02:55;94608.25;;;11.55;100.00
1832;BME280;1680;48.106;11.708;2023-04-24T01:05:24;94598.69;;;11.49;100.00
1832;BME280;1680;48.106;11.708;2023-04-24T01:07:55;94606.66;;;11.54;100.00
1832;BME280;1680;48.106;11.708;2023-04-24T01:10:24;94608.91;;;11.45;100.00
1832;BME280;1680;48.106;11.708;2023-04-24T01:12:53;94609.72;;;11.46;100.00
1832;BME280;1680;48.106;11.708;2023-04-24T01:15:21;94614.59;;;11.32;100.00
1832;BME280;1680;48.106;11.708;2023-04-24T01:17:49;94610.09;;;11.33;100.00
1832;BME280;1680;48.106;11.708;2023-04-24T01:20:17;94612.72;;;11.33;100.00
1832;BME280;1680;48.106;11.708;2023-04-24T01:22:45;94616.16;;;11.33;100.00
1832;BME280;1680;48.106;11.708;2023-04-24T01:25:13;94612.22;;;11.31;100.00
1832;BME280;1680;48.106;11.708;2023-04-24T01:27:40;94609.03;;;11.29;100.00
1832;BME280;1680;48.106;11.708;2023-04-24T01:30:08;94606.16;;;11.30;100.00
1832;BME280;1680;48.106;11.708;2023-04-24T01:32:36;94599.63;;;11.33;100.00
1832;BME280;1680;48.106;11.708;2023-04-24T01:35:04;94604.16;;;11.42;100.00
1832;BME280;1680;48.106;11.708;2023-04-24T01:37:32;94553.69;;;11.04;100.00
1832;BME280;1680;48.106;11.708;2023-04-24T01:40:03;94613.25;;;11.30;100.00
1832;BME280;1680;48.106;11.708;2023-04-24T01:42:31;94618.94;;;11.22;100.00
1832;BME280;1680;48.106;11.708;2023-04-24T01:44:59;94612.09;;;11.21;100.00
1832;BME280;1680;48.106;11.708;2023-04-24T01:47:26;94611.53;;;11.14;100.00
1832;BME280;1680;48.106;11.708;2023-04-24T01:49:54;94612.38;;;11.24;100.00
1832;BME280;1680;48.106;11.708;2023-04-24T01:52:21;94616.25;;;11.17;100.00
1832;BME280;1680;48.106;11.708;2023-04-24T01:54:48;94613.06;;;11.10;100.00
1832;BME280;1680;48.106;11.708;2023-04-24T01:57:17;94563.28;;;10.67;100.00
1832;BME280;1680;48.106;11.708;2023-04-24T01:59:44;94609.94;;;11.13;100.00
1832;BME280;1680;48.106;11.708;2023-04-24T02:02:11;94616.41;;;11.05;100.00
1832;BME280;1680;48.106;11.708;2023-04-24T02:04:39;94619.25;;;10.99;100.00
1832;BME280;1680;48.106;11.708;2023-04-24T02:07:06;94610.28;;;10.95;100.00
1832;BME280;1680;48.106;11.708;2023-04-24T02:09:33;94606.69;;;11.01;100.00
1832;BME280;1680;48.106;11.708;2023-04-24T02:12:00;94605.50;;;10.92;100.00
1832;BME280;1680;48.106;11.708;2023-04-24T02:14:29;94606.63;;;10.96;100.00
1832;BME280;1680;48.106;11.708;2023-04-24T02:17:02;94605.88;;;11.00;100.00
1832;BME280;1680;48.106;11.708;2023-04-24T02:19:30;94545.25;;;10.49;100.00
1832;BME280;1680;48.106;11.708;2023-04-24T02:21:57;94600.31;;;10.97;100.00
1832;BME280;1680;48.106;11.708;2023-04-24T02:24:24;94601.09;;;10.97;100.00
1832;BME280;1680;48.106;11.708;2023-04-24T02:26:52;94598.81;;;11.01;100.00
1832;BME280;1680;48.106;11.708;2023-04-24T02:29:19;94591.28;;;10.88;100.00
1832;BME280;1680;48.106;11.708;2023-04-24T02:31:48;94598.44;;;10.92;100.00
1832;BME280;1680;48.106;11.708;2023-04-24T02:34:15;94598.69;;;10.91;100.00
1832;BME280;1680;48.106;11.708;2023-04-24T02:36:42;94603.19;;;10.95;100.00
1832;BME280;1680;48.106;11.708;2023-04-24T02:39:09;94601.38;;;10.96;100.00
1832;BME280;1680;48.106;11.708;2023-04-24T02:41:37;94597.75;;;10.75;100.00
1832;BME280;1680;48.106;11.708;2023-04-24T02:44:04;94602.78;;;10.82;100.00
1832;BME280;1680;48.106;11.708;2023-04-24T02:46:31;94605.44;;;10.87;100.00
1832;BME280;1680;48.106;11.708;2023-04-24T02:48:59;94599.06;;;10.78;100.00
1832;BME280;1680;48.106;11.708;2023-04-24T02:51:27;94598.66;;;10.86;100.00
1832;BME280;1680;48.106;11.708;2023-04-24T02:53:54;94600.72;;;10.84;100.00
1832;BME280;1680;48.106;11.708;2023-04-24T02:56:21;94601.09;;;10.71;100.00
1832;BME280;1680;48.106;11.708;2023-04-24T02:58:51;94598.53;;;10.76;100.00
1832;BME280;1680;48.106;11.708;2023-04-24T03:01:18;94605.28;;;10.72;100.00
1832;BME280;1680;48.106;11.708;2023-04-24T03:03:45;94609.81;;;10.76;100.00
1832;BME280;1680;48.106;11.708;2023-04-24T03:06:14;94534.69;;;10.39;100.00
1832;BME280;1680;48.106;11.708;2023-04-24T03:08:41;94603.22;;;10.74;100.00
1832;BME280;1680;48.106;11.708;2023-04-24T03:11:09;94607.00;;;10.83;100.00
1832;BME280;1680;48.106;11.708;2023-04-24T03:13:36;94607.56;;;10.85;100.00
1832;BME280;1680;48.106;11.708;2023-04-24T03:16:04;94606.44;;;10.81;100.00
1832;BME280;1680;48.106;11.708;2023-04-24T03:18:34;94610.22;;;10.90;100.00
1832;BME280;1680;48.106;11.708;2023-04-24T03:21:01;94610.19;;;10.85;100.00
1832;BME280;1680;48.106;11.708;2023-04-24T03:23:30;94613.22;;;10.77;100.00
1832;BME280;1680;48.106;11.708;2023-04-24T03:25:57;94612.97;;;10.57;100.00
1832;BME280;1680;48.106;11.708;2023-04-24T03:28:27;94611.59;;;10.71;100.00
1832;BME280;1680;48.106;11.708;2023-04-24T03:30:54;94617.78;;;10.86;100.00
1832;BME280;1680;48.106;11.708;2023-04-24T03:33:21;94612.44;;;10.76;100.00
1832;BME280;1680;48.106;11.708;2023-04-24T03:35:48;94607.91;;;10.72;100.00
1832;BME280;1680;48.106;11.708;2023-04-24T03:38:17;94618.91;;;10.69;100.00
1832;BME280;1680;48.106;11.708;2023-04-24T03:40:46;94620.44;;;10.65;100.00
1832;BME280;1680;48.106;11.708;2023-04-24T03:43:13;94617.31;;;10.68;100.00
1832;BME280;1680;48.106;11.708;2023-04-24T03:45:40;94614.94;;;10.66;100.00
1832;BME280;1680;48.106;11.708;2023-04-24T03:48:10;94619.88;;;10.63;100.00
1832;BME280;1680;48.106;11.708;2023-04-24T03:50:40;94616.84;;;10.71;100.00
1832;BME280;1680;48.106;11.708;2023-04-24T03:53:08;94613.66;;;10.69;100.00
1832;BME280;1680;48.106;11.708;2023-04-24T03:55:35;94611.47;;;10.61;100.00
1832;BME280;1680;48.106;11.708;2023-04-24T03:58:03;94610.34;;;10.57;100.00
1832;BME280;1680;48.106;11.708;2023-04-24T04:00:31;94616.28;;;10.69;100.00
1832;BME280;1680;48.106;11.708;2023-04-24T04:02:58;94607.50;;;10.59;100.00
1832;BME280;1680;48.106;11.708;2023-04-24T04:05:26;94602.66;;;10.72;100.00
1832;BME280;1680;48.106;11.708;2023-04-24T04:07:53;94598.34;;;10.61;100.00
1832;BME280;1680;48.106;11.708;2023-04-24T04:10:20;94604.22;;;10.68;100.00
1832;BME280;1680;48.106;11.708;2023-04-24T04:12:48;94600.22;;;10.65;100.00
1832;BME280;1680;48.106;11.708;2023-04-24T04:15:16;94601.03;;;10.66;100.00
1832;BME280;1680;48.106;11.708;2023-04-24T04:17:43;94594.50;;;10.68;100.00
1832;BME280;1680;48.106;11.708;2023-04-24T04:20:12;94596.72;;;10.55;100.00
1832;BME280;1680;48.106;11.708;2023-04-24T04:22:40;94601.44;;;10.58;100.00
1832;BME280;1680;48.106;11.708;2023-04-24T04:25:07;94599.88;;;10.57;100.00
1832;BME280;1680;48.106;11.708;2023-04-24T04:27:34;94596.09;;;10.48;100.00
1832;BME280;1680;48.106;11.708;2023-04-24T04:30:02;94608.94;;;10.50;100.00
1832;BME280;1680;48.106;11.708;2023-04-24T04:32:31;94605.00;;;10.47;100.00
1832;BME280;1680;48.106;11.708;2023-04-24T04:34:59;94595.06;;;10.49;100.00
1832;BME280;1680;48.106;11.708;2023-04-24T04:37:28;94597.69;;;10.49;100.00
1832;BME280;1680;48.106;11.708;2023-04-24T04:39:56;94604.59;;;10.55;100.00
1832;BME280;1680;48.106;11.708;2023-04-24T04:42:24;94607.50;;;10.59;100.00
1832;BME280;1680;48.106;11.708;2023-04-24T04:44:52;94604.88;;;10.59;100.00
1832;BME280;1680;48.106;11.708;2023-04-24T04:47:21;94619.28;;;10.56;100.00
1832;BME280;1680;48.106;11.708;2023-04-24T04:49:51;94605.56;;;10.49;100.00
1832;BME280;1680;48.106;11.708;2023-04-24T04:52:18;94602.94;;;10.49;100.00
1832;BME280;1680;48.106;11.708;2023-04-24T04:54:50;94619.31;;;10.61;100.00
1832;BME280;1680;48.106;11.708;2023-04-24T04:57:17;94621.38;;;10.59;100.00
1832;BME280;1680;48.106;11.708;2023-04-24T04:59:44;94614.94;;;10.66;100.00
1832;BME280;1680;48.106;11.708;2023-04-24T05:02:11;94621.34;;;10.54;100.00
1832;BME280;1680;48.106;11.708;2023-04-24T05:04:38;94621.53;;;10.69;100.00
1832;BME280;1680;48.106;11.708;2023-04-24T05:07:07;94626.22;;;10.67;100.00
1832;BME280;1680;48.106;11.708;2023-04-24T05:09:34;94587.50;;;10.31;100.00
1832;BME280;1680;48.106;11.708;2023-04-24T05:12:01;94635.59;;;10.63;100.00
1832;BME280;1680;48.106;11.708;2023-04-24T05:14:29;94631.47;;;10.67;100.00
1832;BME280;1680;48.106;11.708;2023-04-24T05:16:56;94640.25;;;10.56;100.00
1832;BME280;1680;48.106;11.708;2023-04-24T05:19:23;94642.00;;;10.72;100.00
1832;BME280;1680;48.106;11.708;2023-04-24T05:21:50;94651.44;;;10.73;100.00
1832;BME280;1680;48.106;11.708;2023-04-24T05:24:19;94646.72;;;10.70;100.00
1832;BME280;1680;48.106;11.708;2023-04-24T05:26:46;94640.38;;;10.66;100.00
1832;BME280;1680;48.106;11.708;2023-04-24T05:29:13;94654.03;;;10.68;100.00
1832;BME280;1680;48.106;11.708;2023-04-24T05:31:40;94650.19;;;10.75;100.00
1832;BME280;1680;48.106;11.708;2023-04-24T05:34:07;94639.38;;;10.72;100.00
1832;BME280;1680;48.106;11.708;2023-04-24T05:36:35;94647.31;;;10.77;100.00
1832;BME280;1680;48.106;11.708;2023-04-24T05:39:02;94650.59;;;10.89;100.00
1832;BME280;1680;48.106;11.708;2023-04-24T05:41:33;94643.66;;;10.78;100.00
1832;BME280;1680;48.106;11.708;2023-04-24T05:44:00;94644.56;;;10.88;100.00
1832;BME280;1680;48.106;11.708;2023-04-24T05:46:27;94650.34;;;11.12;100.00
1832;BME280;1680;48.106;11.708;2023-04-24T05:48:54;94651.91;;;11.13;100.00
1832;BME280;1680;48.106;11.708;2023-04-24T05:51:21;94657.03;;;11.03;100.00
1832;BME280;1680;48.106;11.708;2023-04-24T05:53:48;94645.63;;;11.14;100.00
1832;BME280;1680;48.106;11.708;2023-04-24T05:56:16;94644.53;;;11.10;100.00
1832;BME280;1680;48.106;11.708;2023-04-24T05:58:45;94654.38;;;10.98;100.00
1832;BME280;1680;48.106;11.708;2023-04-24T06:01:12;94650.53;;;11.05;100.00
1832;BME280;1680;48.106;11.708;2023-04-24T06:03:41;94647.72;;;11.12;100.00
1832;BME280;1680;48.106;11.708;2023-04-24T06:06:08;94658.25;;;11.17;100.00
1832;BME280;1680;48.106;11.708;2023-04-24T06:08:35;94661.41;;;11.19;100.00
1832;BME280;1680;48.106;11.708;2023-04-24T06:11:02;94663.13;;;11.30;100.00
1832;BME280;1680;48.106;11.708;2023-04-24T06:13:29;94650.00;;;11.30;100.00
1832;BME280;1680;48.106;11.708;2023-04-24T06:15:58;94656.88;;;11.36;100.00
1832;BME280;1680;48.106;11.708;2023-04-24T06:18:25;94660.66;;;11.45;100.00
1832;BME280;1680;48.106;11.708;2023-04-24T06:20:52;94668.06;;;11.53;100.00
1832;BME280;1680;48.106;11.708;2023-04-24T06:23:20;94657.09;;;11.56;100.00
1832;BME280;1680;48.106;11.708;2023-04-24T06:25:47;94659.25;;;11.63;100.00
1832;BME280;1680;48.106;11.708;2023-04-24T06:28:15;94662.44;;;11.65;100.00
1832;BME280;1680;48.106;11.708;2023-04-24T06:30:44;94658.19;;;11.60;100.00
1832;BME280;1680;48.106;11.708;2023-04-24T06:33:12;94665.06;;;11.65;100.00
1832;BME280;1680;48.106;11.708;2023-04-24T06:35:39;94655.69;;;11.74;100.00
1832;BME280;1680;48.106;11.708;2023-04-24T06:38:09;94663.72;;;11.63;100.00
1832;BME280;1680;48.106;11.708;2023-04-24T06:40:36;94660.56;;;11.61;100.00
1832;BME280;1680;48.106;11.708;2023-04-24T06:43:04;94659.44;;;11.83;100.00
1832;BME280;1680;48.106;11.708;2023-04-24T06:45:31;94666.63;;;11.66;100.00
1832;BME280;1680;48.106;11.708;2023-04-24T06:47:58;94664.47;;;11.59;100.00
1832;BME280;1680;48.106;11.708;2023-04-24T06:50:27;94668.22;;;11.67;100.00
1832;BME280;1680;48.106;11.708;2023-04-24T06:52:54;94672.50;;;11.73;100.00
1832;BME280;1680;48.106;11.708;2023-04-24T06:55:21;94680.41;;;11.78;100.00
1832;BME280;1680;48.106;11.708;2023-04-24T06:57:48;94669.94;;;11.83;100.00
1832;BME280;1680;48.106;11.708;2023-04-24T07:00:16;94677.47;;;12.06;100.00
1832;BME280;1680;48.106;11.708;2023-04-24T07:02:43;94673.13;;;12.22;100.00
1832;BME280;1680;48.106;11.708;2023-04-24T07:05:10;94675.44;;;12.13;100.00
1832;BME280;1680;48.106;11.708;2023-04-24T07:07:39;94664.75;;;12.30;100.00
1832;BME280;1680;48.106;11.708;2023-04-24T07:10:08;94667.69;;;12.38;100.00
1832;BME280;1680;48.106;11.708;2023-04-24T07:12:35;94677.75;;;12.51;100.00
1832;BME280;1680;48.106;11.708;2023-04-24T07:15:03;94683.56;;;12.48;100.00
1832;BME280;1680;48.106;11.708;2023-04-24T07:17:31;94643.16;;;12.23;100.00
1832;BME280;1680;48.106;11.708;2023-04-24T07:19:58;94681.47;;;12.50;100.00
1832;BME280;1680;48.106;11.708;2023-04-24T07:22:25;94686.41;;;12.47;100.00
1832;BME280;1680;48.106;11.708;2023-04-24T07:24:54;94681.75;;;12.58;100.00
1832;BME280;1680;48.106;11.708;2023-04-24T07:27:21;94693.13;;;12.64;100.00
1832;BME280;1680;48.106;11.708;2023-04-24T07:29:48;94690.03;;;12.77;100.00
1832;BME280;1680;48.106;11.708;2023-04-24T07:32:15;94703.13;;;12.72;100.00
1832;BME280;1680;48.106;11.708;2023-04-24T07:34:43;94692.75;;;12.97;100.00
1832;BME280;1680;48.106;11.708;2023-04-24T07:37:10;94693.91;;;13.11;100.00
1832;BME280;1680;48.106;11.708;2023-04-24T07:39:37;94687.03;;;13.10;99.97
1832;BME280;1680;48.106;11.708;2023-04-24T07:42:08;94696.84;;;13.34;100.00
1832;BME280;1680;48.106;11.708;2023-04-24T07:44:35;94699.00;;;13.42;97.96
1832;BME280;1680;48.106;11.708;2023-04-24T07:47:03;94699.00;;;13.47;96.24
1832;BME280;1680;48.106;11.708;2023-04-24T07:49:30;94693.44;;;13.34;94.10
1832;BME280;1680;48.106;11.708;2023-04-24T07:51:59;94701.28;;;13.19;97.35
1832;BME280;1680;48.106;11.708;2023-04-24T07:54:27;94698.13;;;13.17;98.51
1832;BME280;1680;48.106;11.708;2023-04-24T07:56:57;94701.53;;;13.12;98.19
1832;BME280;1680;48.106;11.708;2023-04-24T07:59:26;94699.13;;;13.06;98.17
1832;BME280;1680;48.106;11.708;2023-04-24T08:01:54;94706.53;;;13.14;95.32
1832;BME280;1680;48.106;11.708;2023-04-24T08:04:21;94615.88;;;12.34;97.88
1832;BME280;1680;48.106;11.708;2023-04-24T08:06:48;94707.50;;;12.93;95.82
1832;BME280;1680;48.106;11.708;2023-04-24T08:09:15;94720.03;;;12.81;96.19
1832;BME280;1680;48.106;11.708;2023-04-24T08:11:43;94718.34;;;12.60;98.29
1832;BME280;1680;48.106;11.708;2023-04-24T08:14:10;94719.28;;;12.44;99.61
1832;BME280;1680;48.106;11.708;2023-04-24T08:16:40;94713.31;;;12.58;96.07
1832;BME280;1680;48.106;11.708;2023-04-24T08:19:07;94721.97;;;12.54;97.61
1832;BME280;1680;48.106;11.708;2023-04-24T08:21:34;94730.50;;;12.71;95.06
1832;BME280;1680;48.106;11.708;2023-04-24T08:24:01;94730.56;;;12.81;94.68
1832;BME280;1680;48.106;11.708;2023-04-24T08:26:30;94731.13;;;12.88;94.55
1832;BME280;1680;48.106;11.708;2023-04-24T08:28:57;94728.56;;;12.93;95.33
1832;BME280;1680;48.106;11.708;2023-04-24T08:31:25;94723.34;;;13.13;94.87
1832;BME280;1680;48.106;11.708;2023-04-24T08:33:53;94742.28;;;13.05;94.43
1832;BME280;1680;48.106;11.708;2023-04-24T08:36:20;94732.78;;;12.99;93.56
1832;BME280;1680;48.106;11.708;2023-04-24T08:38:48;94726.31;;;12.75;94.87
1832;BME280;1680;48.106;11.708;2023-04-24T08:41:16;94736.25;;;12.63;96.07
1832;BME280;1680;48.106;11.708;2023-04-24T08:43:46;94744.34;;;12.57;96.95
1832;BME280;1680;48.106;11.708;2023-04-24T08:46:15;94746.88;;;12.42;96.98
1832;BME280;1680;48.106;11.708;2023-04-24T08:48:42;94749.69;;;12.30;100.00
1832;BME280;1680;48.106;11.708;2023-04-24T08:51:11;94760.13;;;12.20;100.00
1832;BME280;1680;48.106;11.708;2023-04-24T08:53:39;94774.41;;;11.76;100.00
1832;BME280;1680;48.106;11.708;2023-04-24T08:56:07;94778.34;;;11.53;100.00
1832;BME280;1680;48.106;11.708;2023-04-24T08:58:35;94780.78;;;11.38;100.00
1832;BME280;1680;48.106;11.708;2023-04-24T09:01:03;94784.44;;;11.37;100.00
1832;BME280;1680;48.106;11.708;2023-04-24T09:03:31;94780.78;;;11.38;100.00
1832;BME280;1680;48.106;11.708;2023-04-24T09:06:00;94796.06;;;11.41;100.00
1832;BME280;1680;48.106;11.708;2023-04-24T09:08:29;94785.66;;;11.51;100.00
1832;BME280;1680;48.106;11.708;2023-04-24T09:11:02;94792.84;;;11.81;100.00
1832;BME280;1680;48.106;11.708;2023-04-24T09:13:30;94789.22;;;11.61;94.71
1832;BME280;1680;48.106;11.708;2023-04-24T09:15:58;94804.00;;;11.46;92.36
1832;BME280;1680;48.106;11.708;2023-04-24T09:18:26;94799.53;;;11.46;95.50
1832;BME280;1680;48.106;11.708;2023-04-24T09:21:00;94800.97;;;11.54;96.13
1832;BME280;1680;48.106;11.708;2023-04-24T09:23:30;94792.28;;;11.74;98.40
1832;BME280;1680;48.106;11.708;2023-04-24T09:26:02;94788.06;;;11.73;93.70
1832;BME280;1680;48.106;11.708;2023-04-24T09:28:32;94795.94;;;11.73;93.79
1832;BME280;1680;48.106;11.708;2023-04-24T09:31:03;94768.47;;;11.60;92.84
1832;BME280;1680;48.106;11.708;2023-04-24T09:33:30;94792.38;;;11.84;92.19
1832;BME280;1680;48.106;11.708;2023-04-24T09:35:57;94806.69;;;11.98;90.11
1832;BME280;1680;48.106;11.708;2023-04-24T09:38:37;94802.88;;;12.11;90.24
1832;BME280;1680;48.106;11.708;2023-04-24T09:41:08;94797.50;;;12.27;92.79
1832;BME280;1680;48.106;11.708;2023-04-24T09:43:36;94798.94;;;12.45;91.02
1832;BME280;1680;48.106;11.708;2023-04-24T09:46:05;94696.25;;;11.88;87.05
1832;BME280;1680;48.106;11.708;2023-04-24T09:48:33;94770.94;;;12.60;87.43
1832;BME280;1680;48.106;11.708;2023-04-24T09:51:02;94797.47;;;12.90;88.77
1832;BME280;1680;48.106;11.708;2023-04-24T09:53:32;94791.84;;;13.18;83.84
1832;BME280;1680;48.106;11.708;2023-04-24T09:56:07;94783.97;;;13.28;83.51
1832;BME280;1680;48.106;11.708;2023-04-24T09:58:35;94793.06;;;13.52;84.70
1832;BME280;1680;48.106;11.708;2023-04-24T10:01:02;94785.28;;;13.25;82.96
1832;BME280;1680;48.106;11.708;2023-04-24T10:03:30;94768.69;;;13.20;81.62
1832;BME280;1680;48.106;11.708;2023-04-24T10:05:58;94769.69;;;13.14;83.43
1832;BME280;1680;48.106;11.708;2023-04-24T10:08:26;94776.66;;;13.35;81.46
1832;BME280;1680;48.106;11.708;2023-04-24T10:11:00;94771.41;;;13.40;84.07
1832;BME280;1680;48.106;11.708;2023-04-24T10:13:28;94781.81;;;13.76;79.85
1832;BME280;1680;48.106;11.708;2023-04-24T10:15:56;94780.75;;;13.72;80.45
1832;BME280;1680;48.106;11.708;2023-04-24T10:18:24;94774.09;;;13.55;78.84
1832;BME280;1680;48.106;11.708;2023-04-24T10:20:52;94761.38;;;13.37;79.15
1832;BME280;1680;48.106;11.708;2023-04-24T10:23:21;94769.03;;;13.33;79.74
1832;BME280;1680;48.106;11.708;2023-04-24T10:25:49;94773.03;;;13.51;80.62
1832;BME280;1680;48.106;11.708;2023-04-24T10:28:18;94779.41;;;13.64;80.82
1832;BME280;1680;48.106;11.708;2023-04-24T10:30:47;94784.22;;;13.97;80.00
1832;BME280;1680;48.106;11.708;2023-04-24T10:33:15;94783.69;;;14.05;76.76
1832;BME280;1680;48.106;11.708;2023-04-24T10:35:45;94765.81;;;14.12;75.22
1832;BME280;1680;48.106;11.708;2023-04-24T10:38:18;94767.16;;;14.20;75.73
1832;BME280;1680;48.106;11.708;2023-04-24T10:40:45;94772.16;;;14.36;76.48
1832;BME280;1680;48.106;11.708;2023-04-24T10:43:16;94758.97;;;14.31;76.94
1832;BME280;1680;48.106;11.708;2023-04-24T10:46:01;94768.19;;;14.73;77.29
1832;BME280;1680;48.106;11.708;2023-04-24T10:48:29;94773.22;;;14.25;73.93
1832;BME280;1680;48.106;11.708;2023-04-24T10:50:57;94769.47;;;13.96;74.81
1832;BME280;1680;48.106;11.708;2023-04-24T10:53:28;94771.81;;;13.78;75.79
1832;BME280;1680;48.106;11.708;2023-04-24T10:55:58;94759.38;;;13.68;77.94
1832;BME280;1680;48.106;11.708;2023-04-24T10:58:36;94774.63;;;13.61;77.67
1832;BME280;1680;48.106;11.708;2023-04-24T11:01:05;94767.22;;;13.49;81.50
1832;BME280;1680;48.106;11.708;2023-04-24T11:03:34;94746.00;;;13.14;82.05
1832;BME280;1680;48.106;11.708;2023-04-24T11:06:03;94830.88;;;12.58;91.15
1832;BME280;1680;48.106;11.708;2023-04-24T11:08:37;94776.56;;;10.56;100.00
1832;BME280;1680;48.106;11.708;2023-04-24T11:11:09;94820.41;;;10.44;100.00
1832;BME280;1680;48.106;11.708;2023-04-24T11:14:02;94804.28;;;10.36;100.00
1832;BME280;1680;48.106;11.708;2023-04-24T11:16:42;94801.97;;;10.56;100.00
1832;BME280;1680;48.106;11.708;2023-04-24T11:19:17;94804.03;;;10.70;100.00
1832;BME280;1680;48.106;11.708;2023-04-24T11:21:47;94787.19;;;11.04;100.00
1832;BME280;1680;48.106;11.708;2023-04-24T11:24:24;94800.88;;;11.27;100.00
1832;BME280;1680;48.106;11.708;2023-04-24T11:26:52;94797.31;;;11.55;100.00
1832;BME280;1680;48.106;11.708;2023-04-24T11:29:20;94799.91;;;11.76;100.00
1832;BME280;1680;48.106;11.708;2023-04-24T11:31:49;94799.59;;;11.99;100.00
1832;BME280;1680;48.106;11.708;2023-04-24T11:34:17;94781.47;;;11.97;100.00
1832;BME280;1680;48.106;11.708;2023-04-24T11:36:45;94759.94;;;12.00;100.00
1832;BME280;1680;48.106;11.708;2023-04-24T11:39:13;94806.00;;;12.39;100.00
1832;BME280;1680;48.106;11.708;2023-04-24T11:41:41;94789.47;;;12.75;100.00
1832;BME280;1680;48.106;11.708;2023-04-24T11:44:09;94795.47;;;13.07;99.70
1832;BME280;1680;48.106;11.708;2023-04-24T11:46:36;94806.00;;;13.07;91.87
1832;BME280;1680;48.106;11.708;2023-04-24T11:49:06;94798.34;;;13.05;90.51
1832;BME280;1680;48.106;11.708;2023-04-24T11:51:34;94793.78;;;13.37;97.28
1832;BME280;1680;48.106;11.708;2023-04-24T11:54:01;94802.84;;;13.61;87.24
1832;BME280;1680;48.106;11.708;2023-04-24T11:56:28;94794.19;;;13.80;91.46
1832;BME280;1680;48.106;11.708;2023-04-24T11:58:55;94782.19;;;14.14;90.32
1832;BME280;1680;48.106;11.708;2023-04-24T12:01:23;94785.34;;;14.61;82.14
1832;BME280;1680;48.106;11.708;2023-04-24T12:03:50;94773.16;;;15.00;88.59
1832;BME280;1680;48.106;11.708;2023-04-24T12:06:27;94787.63;;;15.32;81.21
1832;BME280;1680;48.106;11.708;2023-04-24T12:08:54;94789.47;;;15.22;76.49
1832;BME280;1680;48.106;11.708;2023-04-24T12:11:23;94787.44;;;14.89;82.66
1832;BME280;1680;48.106;11.708;2023-04-24T12:13:51;94802.47;;;14.88;80.06
1832;BME280;1680;48.106;11.708;2023-04-24T12:16:18;94804.88;;;14.40;79.41
1832;BME280;1680;48.106;11.708;2023-04-24T12:18:45;94788.69;;;13.87;83.48
1832;BME280;1680;48.106;11.708;2023-04-24T12:21:19;94792.47;;;13.40;87.97
1832;BME280;1680;48.106;11.708;2023-04-24T12:23:48;94789.84;;;13.45;90.44
1832;BME280;1680;48.106;11.708;2023-04-24T12:26:17;94772.53;;;13.63;89.14
1832;BME280;1680;48.106;11.708;2023-04-24T12:28:47;94791.50;;;13.60;83.60
1832;BME280;1680;48.106;11.708;2023-04-24T12:31:15;94795.22;;;13.74;81.53
1832;BME280;1680;48.106;11.708;2023-04-24T12:33:43;94785.75;;;13.73;83.97
1832;BME280;1680;48.106;11.708;2023-04-24T12:36:11;94766.19;;;13.50;81.97
1832;BME280;1680;48.106;11.708;2023-04-24T12:38:43;94726.03;;;13.18;80.52
1832;BME280;1680;48.106;11.708;2023-04-24T12:41:13;94794.72;;;13.87;85.95
1832;BME280;1680;48.106;11.708;2023-04-24T12:43:51;94780.06;;;14.21;83.63
1832;BME280;1680;48.106;11.708;2023-04-24T12:46:19;94772.41;;;14.40;82.56
1832;BME280;1680;48.106;11.708;2023-04-24T12:48:46;94785.63;;;14.50;81.59
1832;BME280;1680;48.106;11.708;2023-04-24T12:51:13;94793.78;;;14.68;78.78
1832;BME280;1680;48.106;11.708;2023-04-24T12:53:40;94788.78;;;14.47;78.38
1832;BME280;1680;48.106;11.708;2023-04-24T12:56:07;94790.09;;;14.54;82.08
1832;BME280;1680;48.106;11.708;2023-04-24T12:58:36;94791.16;;;14.58;85.47
1832;BME280;1680;48.106;11.708;2023-04-24T13:01:03;94800.41;;;14.46;84.09
1832;BME280;1680;48.106;11.708;2023-04-24T13:03:30;94812.25;;;14.13;85.07
1832;BME280;1680;48.106;11.708;2023-04-24T13:05:57;94800.53;;;13.84;84.31
1832;BME280;1680;48.106;11.708;2023-04-24T13:08:24;94810.84;;;14.01;84.12
1832;BME280;1680;48.106;11.708;2023-04-24T13:10:51;94810.63;;;14.17;82.59